Stevensville, MD

5:56 PM EST on November 20, 2014 (GMT -0500)
APRSWXNET Stevensville MD US | Change Station
CLOSE
Current Station
Personal Weather Station
Location: Chester, MD
Elevation: 16 ft
Nearby Weather Stations

Elev 16 ft 38.96 °N, 76.31 °W | Updated 1 day ago

Clear
Clear
36 °F
Feels Like 28 °F
N
13
Wind Variable Wind from WNW
Gusts 19 mph

Today
High -- | Low -- °F
--% Chance of Precip.
Yesterday
High -- | Low -- °F
Precip. -- in
6:53 AM 4:47 PM
Waning Crescent, 3% visible
Pressure 29.91 in
Visibility 10.0 miles
Clouds Few 8500 ft
Windchill 28 °F
Dew Point 23 °F
Humidity 57%
Rainfall 0.00 in
Snow Depth Not available.
UV 0 out of 12
Pollen .10 out of 12
Air Quality Not available.
Flu Activity Not available.
METAR KNAK 202154Z AUTO 00000KT 10SM FEW085 10/M05 A2991 RMK AO2 SLP129 T01001050

More Conditions Fewer Conditions

Pressure 29.91 in
Visibility 10.0 miles
Clouds Few 8500 ft
Windchill 28 °F
Dew Point 23 °F
Humidity 57%
Rainfall 0.00 in
Snow Depth Not available.
UV 0 out of 12
Pollen .10 out of 12
Air Quality Not available.
Flu Activity Not available.
METAR KNAK 202154Z AUTO 00000KT 10SM FEW085 10/M05 A2991 RMK AO2 SLP129 T01001050

More Conditions Fewer Conditions

10-Day Weather Forecast

Almanac

Astronomy

Nov. 20, 2014 Rise Set
Actual Time
Civil Twilight
Nautical Twilight
Astronomical Twilight
Moon
Length of Visible Light
Length of Day
Tomorrow will be .
, % of the Moon is Illuminated

Today's Extremes

State Highs State Lows

Community

WunderPhotos

Upload Photos

1,772,539 photos uploaded!

WunderBlogs® & News

Nearby

Air Quality

  Air Quality AQ Index Pollutant
Not available.

Snow Depth

Station Depth Elevation

Earthquake Activity

City Distance Mag. Time & Date
Minimum magnitude displayed is 2.5.

Coastal Water Temperatures

Place Temperature

Nearby Weather Stations